sensor_id;sensor_type;location;lat;lon;timestamp;P1;durP1;ratioP1;P2;durP2;ratioP2
75971;SDS011;64651;47.540;19.088;2022-12-07T00:04:55;28.50;;;12.47;;
75971;SDS011;64651;47.540;19.088;2022-12-07T00:09:57;28.48;;;12.95;;
75971;SDS011;64651;47.540;19.088;2022-12-07T00:15:00;27.27;;;12.50;;
75971;SDS011;64651;47.540;19.088;2022-12-07T00:20:02;27.33;;;11.80;;
75971;SDS011;64651;47.540;19.088;2022-12-07T00:25:05;28.92;;;12.27;;
75971;SDS011;64651;47.540;19.088;2022-12-07T00:30:08;26.17;;;12.47;;
75971;SDS011;64651;47.540;19.088;2022-12-07T00:35:10;29.50;;;12.80;;
75971;SDS011;64651;47.540;19.088;2022-12-07T00:40:12;28.53;;;12.97;;
75971;SDS011;64651;47.540;19.088;2022-12-07T00:45:15;29.02;;;12.37;;
75971;SDS011;64651;47.540;19.088;2022-12-07T00:50:17;27.77;;;12.75;;
75971;SDS011;64651;47.540;19.088;2022-12-07T00:55:19;27.77;;;12.33;;
75971;SDS011;64651;47.540;19.088;2022-12-07T01:00:21;29.00;;;13.32;;
75971;SDS011;64651;47.540;19.088;2022-12-07T01:05:23;26.10;;;11.27;;
75971;SDS011;64651;47.540;19.088;2022-12-07T01:10:25;28.27;;;11.60;;
75971;SDS011;64651;47.540;19.088;2022-12-07T01:15:28;30.33;;;12.32;;
75971;SDS011;64651;47.540;19.088;2022-12-07T01:20:30;27.13;;;12.60;;
75971;SDS011;64651;47.540;19.088;2022-12-07T01:25:32;29.42;;;12.57;;
75971;SDS011;64651;47.540;19.088;2022-12-07T01:30:35;28.57;;;12.63;;
75971;SDS011;64651;47.540;19.088;2022-12-07T01:35:37;29.42;;;12.90;;
75971;SDS011;64651;47.540;19.088;2022-12-07T01:40:39;28.77;;;12.93;;
75971;SDS011;64651;47.540;19.088;2022-12-07T01:45:41;32.37;;;12.83;;
75971;SDS011;64651;47.540;19.088;2022-12-07T01:50:44;32.30;;;13.10;;
75971;SDS011;64651;47.540;19.088;2022-12-07T01:55:50;31.70;;;13.17;;
75971;SDS011;64651;47.540;19.088;2022-12-07T02:00:55;32.78;;;14.35;;
75971;SDS011;64651;47.540;19.088;2022-12-07T02:05:57;28.65;;;12.57;;
75971;SDS011;64651;47.540;19.088;2022-12-07T02:11:02;29.57;;;13.30;;
75971;SDS011;64651;47.540;19.088;2022-12-07T02:21:45;29.63;;;13.73;;
75971;SDS011;64651;47.540;19.088;2022-12-07T02:32:33;30.58;;;13.38;;
75971;SDS011;64651;47.540;19.088;2022-12-07T02:43:27;34.50;;;15.25;;
75971;SDS011;64651;47.540;19.088;2022-12-07T02:48:32;33.87;;;15.23;;
75971;SDS011;64651;47.540;19.088;2022-12-07T02:53:37;34.70;;;15.50;;
75971;SDS011;64651;47.540;19.088;2022-12-07T02:58:48;33.65;;;15.63;;
75971;SDS011;64651;47.540;19.088;2022-12-07T03:09:26;31.17;;;15.20;;
75971;SDS011;64651;47.540;19.088;2022-12-07T03:14:35;30.47;;;15.37;;
75971;SDS011;64651;47.540;19.088;2022-12-07T03:19:43;34.45;;;15.15;;
75971;SDS011;64651;47.540;19.088;2022-12-07T03:24:49;33.78;;;15.50;;
75971;SDS011;64651;47.540;19.088;2022-12-07T03:29:59;31.00;;;14.47;;
75971;SDS011;64651;47.540;19.088;2022-12-07T03:40:13;32.70;;;15.17;;
75971;SDS011;64651;47.540;19.088;2022-12-07T03:45:18;31.37;;;14.38;;
75971;SDS011;64651;47.540;19.088;2022-12-07T03:50:32;34.78;;;15.13;;
75971;SDS011;64651;47.540;19.088;2022-12-07T03:55:44;29.30;;;14.13;;
75971;SDS011;64651;47.540;19.088;2022-12-07T04:00:49;29.08;;;13.82;;
75971;SDS011;64651;47.540;19.088;2022-12-07T04:05:51;30.07;;;13.97;;
75971;SDS011;64651;47.540;19.088;2022-12-07T04:10:54;34.92;;;16.15;;
75971;SDS011;64651;47.540;19.088;2022-12-07T04:15:56;29.02;;;14.30;;
75971;SDS011;64651;47.540;19.088;2022-12-07T04:20:59;28.87;;;13.57;;
75971;SDS011;64651;47.540;19.088;2022-12-07T04:26:01;24.45;;;11.45;;
75971;SDS011;64651;47.540;19.088;2022-12-07T04:31:03;23.47;;;9.97;;
75971;SDS011;64651;47.540;19.088;2022-12-07T04:36:05;23.90;;;10.68;;
75971;SDS011;64651;47.540;19.088;2022-12-07T04:41:08;21.58;;;10.45;;
75971;SDS011;64651;47.540;19.088;2022-12-07T04:46:11;16.70;;;6.77;;
75971;SDS011;64651;47.540;19.088;2022-12-07T04:51:14;14.43;;;6.47;;
75971;SDS011;64651;47.540;19.088;2022-12-07T04:56:21;12.77;;;4.97;;
75971;SDS011;64651;47.540;19.088;2022-12-07T05:01:23;11.12;;;4.18;;
75971;SDS011;64651;47.540;19.088;2022-12-07T05:06:26;9.00;;;3.30;;
75971;SDS011;64651;47.540;19.088;2022-12-07T05:11:28;8.57;;;3.00;;
75971;SDS011;64651;47.540;19.088;2022-12-07T05:16:43;9.77;;;3.55;;
75971;SDS011;64651;47.540;19.088;2022-12-07T05:21:46;10.30;;;3.37;;
75971;SDS011;64651;47.540;19.088;2022-12-07T05:26:49;11.30;;;4.20;;
75971;SDS011;64651;47.540;19.088;2022-12-07T05:31:51;12.60;;;5.12;;
75971;SDS011;64651;47.540;19.088;2022-12-07T05:36:53;13.57;;;5.63;;
75971;SDS011;64651;47.540;19.088;2022-12-07T05:41:55;12.27;;;5.07;;
75971;SDS011;64651;47.540;19.088;2022-12-07T05:47:16;12.53;;;4.97;;
75971;SDS011;64651;47.540;19.088;2022-12-07T05:52:18;14.38;;;5.05;;
75971;SDS011;64651;47.540;19.088;2022-12-07T05:57:20;11.98;;;4.80;;
75971;SDS011;64651;47.540;19.088;2022-12-07T06:02:23;11.80;;;4.70;;
75971;SDS011;64651;47.540;19.088;2022-12-07T06:07:25;11.70;;;4.50;;
75971;SDS011;64651;47.540;19.088;2022-12-07T06:12:27;11.23;;;4.30;;
75971;SDS011;64651;47.540;19.088;2022-12-07T06:17:35;11.88;;;4.80;;
75971;SDS011;64651;47.540;19.088;2022-12-07T06:22:38;11.40;;;4.93;;
75971;SDS011;64651;47.540;19.088;2022-12-07T06:27:40;14.10;;;5.43;;
75971;SDS011;64651;47.540;19.088;2022-12-07T06:32:42;11.35;;;4.57;;
75971;SDS011;64651;47.540;19.088;2022-12-07T06:37:44;14.50;;;5.70;;
75971;SDS011;64651;47.540;19.088;2022-12-07T06:42:47;16.42;;;6.93;;
75971;SDS011;64651;47.540;19.088;2022-12-07T06:47:49;21.08;;;10.60;;
75971;SDS011;64651;47.540;19.088;2022-12-07T06:52:51;30.97;;;12.97;;
75971;SDS011;64651;47.540;19.088;2022-12-07T06:57:54;30.42;;;14.93;;
75971;SDS011;64651;47.540;19.088;2022-12-07T07:02:56;31.03;;;14.70;;
75971;SDS011;64651;47.540;19.088;2022-12-07T07:07:58;30.83;;;15.05;;
75971;SDS011;64651;47.540;19.088;2022-12-07T07:13:20;32.28;;;15.73;;
75971;SDS011;64651;47.540;19.088;2022-12-07T07:18:23;34.30;;;16.40;;
75971;SDS011;64651;47.540;19.088;2022-12-07T07:23:25;34.17;;;16.37;;
75971;SDS011;64651;47.540;19.088;2022-12-07T07:28:28;33.93;;;16.33;;
75971;SDS011;64651;47.540;19.088;2022-12-07T07:33:36;33.90;;;16.95;;
75971;SDS011;64651;47.540;19.088;2022-12-07T07:38:38;35.67;;;17.58;;
75971;SDS011;64651;47.540;19.088;2022-12-07T07:43:40;40.33;;;16.80;;
75971;SDS011;64651;47.540;19.088;2022-12-07T07:48:42;36.45;;;16.62;;
75971;SDS011;64651;47.540;19.088;2022-12-07T07:53:45;34.20;;;16.60;;
75971;SDS011;64651;47.540;19.088;2022-12-07T07:58:51;35.95;;;16.27;;
75971;SDS011;64651;47.540;19.088;2022-12-07T08:03:53;37.13;;;17.55;;
75971;SDS011;64651;47.540;19.088;2022-12-07T08:08:56;39.93;;;18.43;;
75971;SDS011;64651;47.540;19.088;2022-12-07T08:13:59;37.63;;;19.12;;
75971;SDS011;64651;47.540;19.088;2022-12-07T08:19:04;36.30;;;18.63;;
75971;SDS011;64651;47.540;19.088;2022-12-07T08:24:06;36.80;;;17.75;;
75971;SDS011;64651;47.540;19.088;2022-12-07T08:29:08;36.97;;;18.25;;
75971;SDS011;64651;47.540;19.088;2022-12-07T08:34:11;35.27;;;17.67;;
75971;SDS011;64651;47.540;19.088;2022-12-07T08:39:14;35.28;;;18.60;;
75971;SDS011;64651;47.540;19.088;2022-12-07T08:44:33;31.97;;;16.70;;
75971;SDS011;64651;47.540;19.088;2022-12-07T08:49:43;33.60;;;16.50;;
75971;SDS011;64651;47.540;19.088;2022-12-07T08:54:49;35.33;;;17.98;;
75971;SDS011;64651;47.540;19.088;2022-12-07T08:59:51;27.70;;;13.73;;
75971;SDS011;64651;47.540;19.088;2022-12-07T09:04:53;24.20;;;12.30;;
75971;SDS011;64651;47.540;19.088;2022-12-07T09:09:55;21.50;;;9.97;;
75971;SDS011;64651;47.540;19.088;2022-12-07T09:14:58;22.05;;;10.68;;
75971;SDS011;64651;47.540;19.088;2022-12-07T09:20:02;17.52;;;8.23;;
75971;SDS011;64651;47.540;19.088;2022-12-07T09:25:06;19.67;;;9.13;;
75971;SDS011;64651;47.540;19.088;2022-12-07T09:30:09;18.17;;;7.93;;
75971;SDS011;64651;47.540;19.088;2022-12-07T09:35:11;18.23;;;8.43;;
75971;SDS011;64651;47.540;19.088;2022-12-07T09:40:15;17.50;;;8.55;;
75971;SDS011;64651;47.540;19.088;2022-12-07T09:45:23;17.10;;;8.38;;
75971;SDS011;64651;47.540;19.088;2022-12-07T09:50:33;17.50;;;8.40;;
75971;SDS011;64651;47.540;19.088;2022-12-07T09:55:35;15.27;;;7.62;;
75971;SDS011;64651;47.540;19.088;2022-12-07T10:00:39;16.13;;;7.83;;
75971;SDS011;64651;47.540;19.088;2022-12-07T10:05:43;16.35;;;8.05;;
75971;SDS011;64651;47.540;19.088;2022-12-07T10:10:50;17.08;;;7.55;;
75971;SDS011;64651;47.540;19.088;2022-12-07T10:15:58;13.07;;;6.43;;
75971;SDS011;64651;47.540;19.088;2022-12-07T10:31:30;12.27;;;5.57;;
75971;SDS011;64651;47.540;19.088;2022-12-07T10:36:34;10.98;;;5.65;;
75971;SDS011;64651;47.540;19.088;2022-12-07T10:41:58;11.30;;;5.73;;
75971;SDS011;64651;47.540;19.088;2022-12-07T10:52:53;12.07;;;5.97;;
75971;SDS011;64651;47.540;19.088;2022-12-07T11:25:04;12.90;;;5.90;;
75971;SDS011;64651;47.540;19.088;2022-12-07T11:30:24;11.90;;;5.75;;
75971;SDS011;64651;47.540;19.088;2022-12-07T11:35:43;11.50;;;4.93;;
75971;SDS011;64651;47.540;19.088;2022-12-07T11:40:50;11.95;;;5.68;;
75971;SDS011;64651;47.540;19.088;2022-12-07T11:46:11;12.97;;;5.70;;
75971;SDS011;64651;47.540;19.088;2022-12-07T11:51:16;14.85;;;5.93;;
75971;SDS011;64651;47.540;19.088;2022-12-07T11:56:23;11.90;;;5.40;;
75971;SDS011;64651;47.540;19.088;2022-12-07T12:01:32;12.83;;;5.53;;
75971;SDS011;64651;47.540;19.088;2022-12-07T12:06:38;10.38;;;4.70;;
75971;SDS011;64651;47.540;19.088;2022-12-07T12:23:04;11.55;;;5.05;;
75971;SDS011;64651;47.540;19.088;2022-12-07T12:33:52;13.00;;;5.95;;
75971;SDS011;64651;47.540;19.088;2022-12-07T12:39:09;13.80;;;6.23;;
75971;SDS011;64651;47.540;19.088;2022-12-07T12:54:25;17.70;;;6.70;;
75971;SDS011;64651;47.540;19.088;2022-12-07T12:59:28;11.70;;;6.37;;
75971;SDS011;64651;47.540;19.088;2022-12-07T13:05:19;12.80;;;6.50;;
75971;SDS011;64651;47.540;19.088;2022-12-07T13:09:57;12.32;;;5.93;;
75971;SDS011;64651;47.540;19.088;2022-12-07T13:14:59;11.25;;;5.60;;
75971;SDS011;64651;47.540;19.088;2022-12-07T13:20:02;10.97;;;5.07;;
75971;SDS011;64651;47.540;19.088;2022-12-07T13:30:30;10.60;;;4.50;;
75971;SDS011;64651;47.540;19.088;2022-12-07T13:35:34;11.57;;;5.07;;
75971;SDS011;64651;47.540;19.088;2022-12-07T13:40:41;12.05;;;5.28;;
75971;SDS011;64651;47.540;19.088;2022-12-07T13:45:43;11.87;;;5.23;;
75971;SDS011;64651;47.540;19.088;2022-12-07T13:50:52;13.40;;;5.87;;
75971;SDS011;64651;47.540;19.088;2022-12-07T13:55:59;15.00;;;6.03;;
75971;SDS011;64651;47.540;19.088;2022-12-07T14:01:02;14.75;;;6.28;;
75971;SDS011;64651;47.540;19.088;2022-12-07T14:06:16;16.02;;;6.30;;
75971;SDS011;64651;47.540;19.088;2022-12-07T14:11:21;13.43;;;6.13;;
75971;SDS011;64651;47.540;19.088;2022-12-07T14:16:34;15.65;;;6.20;;
75971;SDS011;64651;47.540;19.088;2022-12-07T14:21:38;14.60;;;6.30;;
75971;SDS011;64651;47.540;19.088;2022-12-07T14:26:40;16.50;;;6.55;;
75971;SDS011;64651;47.540;19.088;2022-12-07T14:31:43;15.55;;;6.50;;
75971;SDS011;64651;47.540;19.088;2022-12-07T14:36:45;14.40;;;6.30;;
75971;SDS011;64651;47.540;19.088;2022-12-07T14:41:47;14.52;;;6.12;;
75971;SDS011;64651;47.540;19.088;2022-12-07T14:46:53;15.33;;;5.90;;
75971;SDS011;64651;47.540;19.088;2022-12-07T14:52:23;16.05;;;6.25;;
75971;SDS011;64651;47.540;19.088;2022-12-07T14:57:48;18.58;;;6.85;;
75971;SDS011;64651;47.540;19.088;2022-12-07T15:02:51;17.50;;;7.20;;
75971;SDS011;64651;47.540;19.088;2022-12-07T15:07:53;15.43;;;6.07;;
75971;SDS011;64651;47.540;19.088;2022-12-07T15:12:56;15.07;;;5.77;;
75971;SDS011;64651;47.540;19.088;2022-12-07T15:18:22;14.98;;;6.07;;
75971;SDS011;64651;47.540;19.088;2022-12-07T15:23:25;14.95;;;6.30;;
75971;SDS011;64651;47.540;19.088;2022-12-07T15:28:27;18.70;;;6.80;;
75971;SDS011;64651;47.540;19.088;2022-12-07T15:33:29;17.42;;;7.05;;
75971;SDS011;64651;47.540;19.088;2022-12-07T15:38:31;19.47;;;7.03;;
75971;SDS011;64651;47.540;19.088;2022-12-07T15:43:53;15.48;;;6.30;;
75971;SDS011;64651;47.540;19.088;2022-12-07T15:49:17;16.70;;;6.72;;
75971;SDS011;64651;47.540;19.088;2022-12-07T15:54:22;15.33;;;5.60;;
75971;SDS011;64651;47.540;19.088;2022-12-07T15:59:27;16.77;;;6.55;;
75971;SDS011;64651;47.540;19.088;2022-12-07T16:04:30;16.90;;;6.43;;
75971;SDS011;64651;47.540;19.088;2022-12-07T16:09:32;18.10;;;7.32;;
75971;SDS011;64651;47.540;19.088;2022-12-07T16:14:35;16.87;;;7.03;;
75971;SDS011;64651;47.540;19.088;2022-12-07T16:19:37;17.07;;;6.80;;
75971;SDS011;64651;47.540;19.088;2022-12-07T16:24:40;16.25;;;6.40;;
75971;SDS011;64651;47.540;19.088;2022-12-07T16:29:42;18.30;;;6.83;;
75971;SDS011;64651;47.540;19.088;2022-12-07T16:34:44;18.35;;;6.72;;
75971;SDS011;64651;47.540;19.088;2022-12-07T16:39:46;16.60;;;6.53;;
75971;SDS011;64651;47.540;19.088;2022-12-07T16:44:48;17.67;;;7.10;;
75971;SDS011;64651;47.540;19.088;2022-12-07T16:49:50;17.02;;;7.30;;
75971;SDS011;64651;47.540;19.088;2022-12-07T16:54:53;18.57;;;6.87;;
75971;SDS011;64651;47.540;19.088;2022-12-07T16:59:56;16.77;;;7.10;;
75971;SDS011;64651;47.540;19.088;2022-12-07T17:04:58;17.48;;;6.90;;
75971;SDS011;64651;47.540;19.088;2022-12-07T17:10:00;16.73;;;7.10;;
75971;SDS011;64651;47.540;19.088;2022-12-07T17:15:02;19.40;;;7.45;;
75971;SDS011;64651;47.540;19.088;2022-12-07T17:20:23;18.60;;;7.00;;
75971;SDS011;64651;47.540;19.088;2022-12-07T17:25:26;23.15;;;7.65;;
75971;SDS011;64651;47.540;19.088;2022-12-07T17:30:28;19.87;;;7.47;;
75971;SDS011;64651;47.540;19.088;2022-12-07T17:35:31;22.27;;;7.63;;
75971;SDS011;64651;47.540;19.088;2022-12-07T17:40:33;20.37;;;7.78;;
75971;SDS011;64651;47.540;19.088;2022-12-07T17:45:35;19.47;;;7.67;;
75971;SDS011;64651;47.540;19.088;2022-12-07T17:50:38;18.50;;;7.00;;
75971;SDS011;64651;47.540;19.088;2022-12-07T17:55:59;18.60;;;7.50;;
75971;SDS011;64651;47.540;19.088;2022-12-07T18:01:21;21.40;;;7.67;;
75971;SDS011;64651;47.540;19.088;2022-12-07T18:06:25;18.20;;;7.07;;
75971;SDS011;64651;47.540;19.088;2022-12-07T18:11:27;21.90;;;8.27;;
75971;SDS011;64651;47.540;19.088;2022-12-07T18:16:30;19.30;;;8.15;;
75971;SDS011;64651;47.540;19.088;2022-12-07T18:21:36;18.12;;;6.78;;
75971;SDS011;64651;47.540;19.088;2022-12-07T18:26:39;22.37;;;8.93;;
75971;SDS011;64651;47.540;19.088;2022-12-07T18:31:41;19.42;;;6.87;;
75971;SDS011;64651;47.540;19.088;2022-12-07T18:36:46;24.87;;;9.93;;
75971;SDS011;64651;47.540;19.088;2022-12-07T18:41:53;27.67;;;10.68;;
75971;SDS011;64651;47.540;19.088;2022-12-07T18:46:56;27.10;;;11.02;;
75971;SDS011;64651;47.540;19.088;2022-12-07T18:51:58;30.60;;;11.43;;
75971;SDS011;64651;47.540;19.088;2022-12-07T18:57:00;41.92;;;14.07;;
75971;SDS011;64651;47.540;19.088;2022-12-07T19:02:02;38.37;;;15.07;;
75971;SDS011;64651;47.540;19.088;2022-12-07T19:07:04;40.22;;;15.45;;
75971;SDS011;64651;47.540;19.088;2022-12-07T19:12:09;29.17;;;10.95;;
75971;SDS011;64651;47.540;19.088;2022-12-07T19:17:13;27.23;;;10.93;;
75971;SDS011;64651;47.540;19.088;2022-12-07T19:22:17;30.35;;;11.15;;
75971;SDS011;64651;47.540;19.088;2022-12-07T19:27:21;33.60;;;13.20;;
75971;SDS011;64651;47.540;19.088;2022-12-07T19:32:24;38.90;;;14.57;;
75971;SDS011;64651;47.540;19.088;2022-12-07T19:37:26;33.03;;;12.82;;
75971;SDS011;64651;47.540;19.088;2022-12-07T19:42:29;25.33;;;10.37;;
75971;SDS011;64651;47.540;19.088;2022-12-07T19:47:36;33.60;;;11.73;;
75971;SDS011;64651;47.540;19.088;2022-12-07T19:52:38;28.57;;;11.63;;
75971;SDS011;64651;47.540;19.088;2022-12-07T19:57:40;33.95;;;13.82;;
75971;SDS011;64651;47.540;19.088;2022-12-07T20:02:42;48.70;;;18.73;;
75971;SDS011;64651;47.540;19.088;2022-12-07T20:07:45;36.50;;;14.67;;
75971;SDS011;64651;47.540;19.088;2022-12-07T20:12:47;38.00;;;14.18;;
75971;SDS011;64651;47.540;19.088;2022-12-07T20:18:08;42.17;;;17.07;;
75971;SDS011;64651;47.540;19.088;2022-12-07T20:23:10;38.25;;;16.00;;
75971;SDS011;64651;47.540;19.088;2022-12-07T20:28:12;34.40;;;14.25;;
75971;SDS011;64651;47.540;19.088;2022-12-07T20:33:14;43.13;;;17.43;;
75971;SDS011;64651;47.540;19.088;2022-12-07T20:38:17;37.88;;;15.30;;
75971;SDS011;64651;47.540;19.088;2022-12-07T20:43:19;39.87;;;15.67;;
75971;SDS011;64651;47.540;19.088;2022-12-07T20:48:21;37.10;;;14.73;;
75971;SDS011;64651;47.540;19.088;2022-12-07T20:53:24;39.25;;;15.18;;
75971;SDS011;64651;47.540;19.088;2022-12-07T20:58:26;25.80;;;10.43;;
75971;SDS011;64651;47.540;19.088;2022-12-07T21:03:29;41.55;;;15.75;;
75971;SDS011;64651;47.540;19.088;2022-12-07T21:08:31;39.53;;;15.87;;
75971;SDS011;64651;47.540;19.088;2022-12-07T21:13:33;42.58;;;15.82;;
75971;SDS011;64651;47.540;19.088;2022-12-07T21:18:36;37.60;;;14.80;;
75971;SDS011;64651;47.540;19.088;2022-12-07T21:23:39;37.00;;;15.53;;
75971;SDS011;64651;47.540;19.088;2022-12-07T21:28:41;38.15;;;15.88;;
75971;SDS011;64651;47.540;19.088;2022-12-07T21:33:43;39.47;;;16.50;;
75971;SDS011;64651;47.540;19.088;2022-12-07T21:38:47;42.75;;;16.58;;
75971;SDS011;64651;47.540;19.088;2022-12-07T21:43:50;42.30;;;17.10;;
75971;SDS011;64651;47.540;19.088;2022-12-07T21:48:53;41.30;;;16.57;;
75971;SDS011;64651;47.540;19.088;2022-12-07T21:53:58;43.05;;;16.73;;
75971;SDS011;64651;47.540;19.088;2022-12-07T21:59:03;39.83;;;16.80;;
75971;SDS011;64651;47.540;19.088;2022-12-07T22:04:09;38.60;;;16.73;;
75971;SDS011;64651;47.540;19.088;2022-12-07T22:09:14;37.80;;;16.05;;
75971;SDS011;64651;47.540;19.088;2022-12-07T22:14:16;38.63;;;15.07;;
75971;SDS011;64651;47.540;19.088;2022-12-07T22:19:38;34.15;;;14.95;;
75971;SDS011;64651;47.540;19.088;2022-12-07T22:24:41;35.47;;;15.47;;
75971;SDS011;64651;47.540;19.088;2022-12-07T22:29:44;39.47;;;15.40;;
75971;SDS011;64651;47.540;19.088;2022-12-07T22:34:46;40.75;;;16.65;;
75971;SDS011;64651;47.540;19.088;2022-12-07T22:39:48;39.57;;;17.53;;
75971;SDS011;64651;47.540;19.088;2022-12-07T22:44:50;41.70;;;17.92;;
75971;SDS011;64651;47.540;19.088;2022-12-07T22:49:52;44.30;;;17.93;;
75971;SDS011;64651;47.540;19.088;2022-12-07T22:54:56;45.97;;;18.27;;
75971;SDS011;64651;47.540;19.088;2022-12-07T22:59:58;40.40;;;17.58;;
75971;SDS011;64651;47.540;19.088;2022-12-07T23:05:00;42.30;;;17.60;;
75971;SDS011;64651;47.540;19.088;2022-12-07T23:10:04;40.70;;;17.33;;
75971;SDS011;64651;47.540;19.088;2022-12-07T23:15:06;39.33;;;17.03;;
75971;SDS011;64651;47.540;19.088;2022-12-07T23:20:09;43.60;;;17.10;;
75971;SDS011;64651;47.540;19.088;2022-12-07T23:25:12;42.45;;;17.20;;
75971;SDS011;64651;47.540;19.088;2022-12-07T23:30:14;41.47;;;16.43;;
75971;SDS011;64651;47.540;19.088;2022-12-07T23:35:16;43.60;;;16.37;;
75971;SDS011;64651;47.540;19.088;2022-12-07T23:40:18;37.70;;;16.47;;
75971;SDS011;64651;47.540;19.088;2022-12-07T23:45:20;39.15;;;16.65;;
75971;SDS011;64651;47.540;19.088;2022-12-07T23:50:23;38.92;;;16.23;;
75971;SDS011;64651;47.540;19.088;2022-12-07T23:55:25;41.50;;;15.80;;
